Home > Products > Valid Products > TAF

000
FTUS43 KIWX 051726
TAFFWA
TAF
KFWA 051726Z 0518/0618 01014G18KT P6SM SCT040
     FM060100 31004KT P6SM SKC=



000
FTUS43 KIWX 051121
TAFFWA
TAF
KFWA 051121Z 0512/0612 01011KT P6SM SCT007 OVC010
      TEMPO 0512/0514 OVC007
     FM051500 01014G24KT P6SM SCT015 BKN050
     FM060100 31004KT P6SM SCT050=



000
FTUS43 KIWX 050928 AAA
TAFFWA
TAF AMD
KFWA 050928Z 0509/0606 34008KT P6SM SCT008 OVC015
      TEMPO 0509/0511 5SM -SHRA OVC007
     FM051300 01012KT P6SM OVC010
     FM051500 01014G24KT P6SM SCT015
     FM060100 31005KT P6SM SCT025=



000
FTUS43 KIWX 050928 AAA
TAFFWA
TAF AMD
KFWA 050928Z 0509/0606 34008KT P6SM SCT008 OVC015
      TEMPO 0509/0511 5SM -SHRA OVC007
     FM051300 01012KT P6SM OVC010
     FM051500 01014G24KT P6SM SCT015
     FM060100 31005KT P6SM SCT025=



000
FTUS43 KIWX 050521
TAFFWA
TAF
KFWA 050521Z 0506/0606 32008KT 5SM -DZ BR BKN008 OVC012
     FM051300 36012KT P6SM OVC010
     FM051500 01014G24KT P6SM SCT015
     FM060100 31005KT P6SM SCT025=



000
FTUS43 KIWX 050140 AAA
TAFFWA
TAF AMD
KFWA 050140Z 0502/0524 29012KT 6SM BR VCSH OVC012
     FM050800 34008KT 4SM BR VCSH OVC010
     FM051300 01014G24KT P6SM SCT015
     FM051600 01014G24KT P6SM BKN035=



000
FTUS43 KIWX 050140 AAA
TAFFWA
TAF AMD
KFWA 050140Z 0502/0524 29012KT 6SM BR VCSH OVC012
     FM050800 34008KT 4SM BR VCSH OVC010
     FM051300 01014G24KT P6SM SCT015
     FM051600 01014G24KT P6SM BKN035=



000
FTUS43 KIWX 042323
TAFFWA
TAF
KFWA 042323Z 0500/0524 32013G22KT P6SM BKN025
      TEMPO 0500/0504 6SM -SHRA OVC015
     FM050500 34008KT 6SM BR VCSH OVC010
     FM051300 01014G24KT P6SM SCT015
     FM051600 01014G24KT P6SM BKN035=



000
FTUS43 KIWX 042323
TAFFWA
TAF
KFWA 042323Z 0500/0524 32013G22KT P6SM BKN025
      TEMPO 0500/0504 6SM -SHRA OVC015
     FM050500 34008KT 6SM BR VCSH OVC010
     FM051300 01014G24KT P6SM SCT015
     FM051600 01014G24KT P6SM BKN035=



000
FTUS43 KIWX 041721
TAFFWA
TAF
KFWA 041721Z 0418/0518 32013G22KT P6SM BKN015 OVC020
     FM050100 34012KT P6SM VCSH OVC009
     FM051000 02007KT 5SM BR OVC012
     FM051200 01013KT P6SM SCT015=



000
FTUS43 KIWX 041721
TAFFWA
TAF
KFWA 041721Z 0418/0518 32013G22KT P6SM BKN015 OVC020
     FM050100 34012KT P6SM VCSH OVC009
     FM051000 02007KT 5SM BR OVC012
     FM051200 01013KT P6SM SCT015=



000
FTUS43 KIWX 041515 AAA
TAFFWA
TAF AMD
KFWA 041515Z 0415/0512 29012G22KT P6SM VCSH BKN017 OVC045
     FM041700 31018G26KT P6SM OVC016
     FM050200 33012KT P6SM OVC010=



000
FTUS43 KIWX 041121
TAFFWA
TAF
KFWA 041121Z 0412/0512 23009KT 5SM SHRA BR OVC020
     FM041500 31015G22KT 6SM -SHRA BR OVC008
     FM041800 31018G25KT P6SM VCSH OVC012
     FM050200 33012KT P6SM OVC010=



000
FTUS43 KIWX 041121
TAFFWA
TAF
KFWA 041121Z 0412/0512 23009KT 5SM SHRA BR OVC020
     FM041500 31015G22KT 6SM -SHRA BR OVC008
     FM041800 31018G25KT P6SM VCSH OVC012
     FM050200 33012KT P6SM OVC010=



000
FTUS43 KIWX 040521
TAFFWA
TAF
KFWA 040521Z 0406/0506 21007KT P6SM BKN100
     FM041200 22012KT 5SM SHRA BR OVC020
     FM041500 26014G22KT 3SM -RA BR OVC008
     FM041800 31018G25KT P6SM OVC012=



000
FTUS43 KIWX 032320
TAFFWA
TAF
KFWA 032320Z 0400/0424 23007KT P6SM BKN100
     FM041200 22014G24KT 5SM SHRA BR OVC020
     FM041500 26014G22KT 3SM -RA BR OVC008
     FM041800 31015G25KT P6SM OVC020=



000
FTUS43 KIWX 032320
TAFFWA
TAF
KFWA 032320Z 0400/0424 23007KT P6SM BKN100
     FM041200 22014G24KT 5SM SHRA BR OVC020
     FM041500 26014G22KT 3SM -RA BR OVC008
     FM041800 31015G25KT P6SM OVC020=



000
FTUS43 KIWX 031735
TAFFWA
TAF
KFWA 031735Z 0318/0418 34008KT P6SM BKN060
     FM040500 22009KT P6SM BKN100
     FM041300 22012KT 5SM SHRA BR OVC020
     FM041700 26014G24KT 3SM -RA BR OVC008=



000
FTUS43 KIWX 031735
TAFFWA
TAF
KFWA 031735Z 0318/0418 34008KT P6SM BKN060
     FM040500 22009KT P6SM BKN100
     FM041300 22012KT 5SM SHRA BR OVC020
     FM041700 26014G24KT 3SM -RA BR OVC008=



000
FTUS43 KIWX 031302 AAA
TAFFWA
TAF AMD
KFWA 031302Z 0313/0412 35003KT P6SM -SHRA BKN045 OVC060
      TEMPO 0313/0315 6SM -SHRA BKN025
     FM031500 26007KT P6SM SCT030 BKN050
     FM040000 22007KT P6SM OVC035=



000
FTUS43 KIWX 031121
TAFFWA
TAF
KFWA 031121Z 0312/0412 05005KT 4SM BR BKN005 OVC020
     FM031400 26007KT P6SM SCT020 BKN040
     FM040000 22007KT P6SM OVC035=



000
FTUS43 KIWX 031029 AAB
TAFFWA
TAF AMD
KFWA 031029Z 0310/0406 05005KT 4SM BR BKN005 OVC020
     FM031400 26007KT P6SM SCT020 BKN040=



000
FTUS43 KIWX 030739 AAA
TAFFWA
TAF AMD
KFWA 030739Z 0308/0406 05005KT P6SM SCT004 OVC020
      TEMPO 0308/0310 2SM -DZ BR BKN008 OVC012
     FM031500 26007KT P6SM SCT020 BKN040=



000
FTUS43 KIWX 030739 AAA
TAFFWA
TAF AMD
KFWA 030739Z 0308/0406 05005KT P6SM SCT004 OVC020
      TEMPO 0308/0310 2SM -DZ BR BKN008 OVC012
     FM031500 26007KT P6SM SCT020 BKN040=



000
FTUS43 KIWX 030521
TAFFWA
TAF
KFWA 030521Z 0306/0406 05005KT P6SM SCT007 OVC012
      TEMPO 0306/0308 5SM -DZ BR BKN008 OVC012
     FM031500 26007KT P6SM SCT020 BKN040=



000
FTUS43 KIWX 030521
TAFFWA
TAF
KFWA 030521Z 0306/0406 05005KT P6SM SCT007 OVC012
      TEMPO 0306/0308 5SM -DZ BR BKN008 OVC012
     FM031500 26007KT P6SM SCT020 BKN040=



000
FTUS43 KIWX 030207 AAA
TAFFWA
TAF AMD
KFWA 030207Z 0302/0324 05005KT P6SM OVC015
      TEMPO 0302/0304 5SM -DZ BR BKN008
     FM031500 32007KT P6SM BKN040=



000
FTUS43 KIWX 022320
TAFFWA
TAF
KFWA 022320Z 0300/0324 05004KT P6SM OVC015
      TEMPO 0300/0302 5SM -RA BR
     FM031500 32007KT P6SM BKN040=



    US Dept of Commerce
    National Oceanic and Atmospheric Administration
    National Weather Service
    1325 East West Highway
    Silver Spring, MD 20910
    Page Author: NWS Internet Services Team
Disclaimer
Information Quality
Credits
Glossary
Privacy Policy
Freedom of Information Act (FOIA)
About Us
Career Opportunities